This is the latest recevied weather packets stored in our database for station/object VK2BLR. If no packets are shown the sender has not sent any weather packets the latest 10 day(s).
| Time | Temp. | Humidity | Pressure | Rain* | Wind** | Luminosity | Snow |
|---|---|---|---|---|---|---|---|
| 1788060991 | 22.22° C | 41% | 1027.7 hPa | 0 mm | - | - | - |
| 1788060091 | 22.22° C | 41% | 1027.8 hPa | 0 mm | - | - | - |
| 1788059192 | 22.22° C | 41% | 1027.8 hPa | 0 mm | - | - | - |
| 1788058291 | 22.22° C | 41% | 1028 hPa | 0 mm | - | - | - |
| 1788057391 | 22.78° C | 40% | 1028.1 hPa | 0 mm | - | - | - |
| 1788056491 | 22.22° C | 41% | 1028.4 hPa | 0 mm | - | - | - |
| 1788055592 | 22.22° C | 40% | 1028.3 hPa | 0 mm | - | - | - |
| 1788054691 | 22.22° C | 38% | 1028.6 hPa | 0 mm | - | - | - |
| 1788053791 | 22.22° C | 39% | 1028.5 hPa | 0 mm | - | - | - |
| 1788052891 | 22.78° C | 38% | 1028.8 hPa | 0 mm | - | - | - |
| 1788051992 | 22.78° C | 35% | 1028.8 hPa | 0 mm | - | - | - |
| 1788051092 | 23.33° C | 34% | 1028.8 hPa | 0 mm | - | - | - |
| 1788050192 | 22.78° C | 35% | 1028.6 hPa | 0 mm | - | - | - |
| 1788049291 | 22.78° C | 35% | 1028.6 hPa | 0 mm | - | - | - |
| 1788048392 | 22.78° C | 38% | 1028.6 hPa | 0 mm | - | - | - |
| 1788047491 | 22.22° C | 41% | 1028.4 hPa | 0 mm | - | - | - |
| 1788046592 | 21.67° C | 42% | 1028.4 hPa | 0 mm | - | - | - |
| 1788045691 | 21.11° C | 45% | 1028.5 hPa | 0 mm | - | - | - |
| 1788044790 | 20.56° C | 48% | 1028.5 hPa | 0 mm | - | - | - |
| 1788043891 | 20° C | 49% | 1028.5 hPa | 0 mm | - | - | - |
| 1788042991 | 19.44° C | 50% | 1028.4 hPa | 0 mm | - | - | - |
| 1788042090 | 18.89° C | 54% | 1028.3 hPa | 0 mm | - | - | - |
| 1788041190 | 16.67° C | 61% | 1028.1 hPa | 0 mm | - | - | - |
| 1788040292 | 14.44° C | 67% | 1028 hPa | 0 mm | - | - | - |
| 1788039392 | 12.22° C | 76% | 1028 hPa | 0 mm | - | - | - |
* Rain latest hour (hover to see other rain measurements)
** Current wind speed in m/s (hover to see current wind gust speed)